Etusivu
METAR-TAF:

METAR-TAF

Lentoasemat :

EuroAirport Basel-Mulhouse-Freiburg

Basel-Mulhouse, Ranska

Leveyspiiri: 47-36N, Pituuspiiri: 007-31E, korkeus merenpinnasta: 270 m

Tämänhetkinen sää

Tämä raportti tehtiin 34 minuuttia sitten, kello 15.00 UTC
Tuuli 3 kn eri suunnista
Lämpötila 15°C
Kosteus 33%
Ilmanpaine 1029 hPa
Näkyvyys 10 km tai enemmän
ei pilviä alle 1500 m:ssä eikä cumulonimbus-pilviä

METAR: LFSB 211500Z VRB03KT CAVOK 15/M01 Q1029 NOSIG

Aika: 16:34 (15:34 UTC)

Sääennuste

Tämä raportti tehtiin 4 tuntia ja 34 minuuttia sitten, kello 11.00 UTC
Ennuste voimassa 21. päivästä klo 12 UTC - 22. päivään klo 12 UTC
Tuuli 6 kn pohjoisesta
Näkyvyys 10 km tai enemmän
ei pilviä alle 1500 m:ssä eikä cumulonimbus-pilviä
Todennäköisyys 30% :
Ajoittain
22. päivästä klo 03 UTC - 22. päivään klo 06 UTC
Tuuli 3 kn eri suunnista
Näkyvyys: 4000 m
Matala sumu

TAF: LFSB 211100Z 2112/2212 36006KT CAVOK PROB30 TEMPO 2203/2206 VRB03KT 4000 MIFG

Säähavainnot ja -ennusteet yli 4000 lentoasemalta (METAR- ja TAF-raportit).

Käytössä olevat sääasemat on merkitty karttaan keltaisilla ja punaisilla pisteillä.

Aseta hiiri pisteen päälle nähdäksesi sääaseman nimen.

Klikkaa sitten nähdäksesi säähavainnot ja -ennusteet.

Kartan vaihtaminen: klikkaa mustalla rastilla varustettuja vihreitä pisteitä, niin voit zoomata sisään; viivalla varustettua vihreää pistettä, niin voit zoomata ulos tai vihreitä nuolia, niin pääset viereisille kartoille.


METAR-TAF: